EIRT weather

Rathcoole Aerodrome
Rathcoole, County Cork, Ireland

Public forecast

Using degrees Celsius for public forecast. Weather courtesy of forecast.io.

METAR (pilot weather report)

Report is more than 6 hours old.

Closest report is Kerry Airport, 20.4 nm (37.8 km) WNW. Retrieved 2019/06/17 19:00 UTC (7 hours ago):

EIKY 171900Z 26011KT 240V300 9999 FEW026 15/10 Q1012

TAF (pilot weather forecast)

Forecast is more than 12 hours old.

Closest forecast is Cork Airport, 24.2 nm (44.7 km) SE. Retrieved 2019/06/17 00:09 UTC (1 day ago):

TAF TAF EICK 172300Z 1800/1824 VRB03KT 9999 FEW015 SCT030 TEMPO 1800/1805 3000 BR BKN007 PROB30 TEMPO 1801/1804 1200 BKN003 BECMG 1811/1813 19012KT BECMG 1820/1822 33010KT